sensor_id;sensor_type;location;lat;lon;timestamp;P1;durP1;ratioP1;P2;durP2;ratioP2
77888;SDS011;67082;41.704;44.768;2024-01-27T08:48:55;66.80;;;32.88;;
77888;SDS011;67082;41.704;44.768;2024-01-27T08:51:24;75.95;;;35.33;;
77888;SDS011;67082;41.704;44.768;2024-01-27T08:53:52;73.65;;;35.78;;
77888;SDS011;67082;41.704;44.768;2024-01-27T08:56:20;75.60;;;37.65;;
77888;SDS011;67082;41.704;44.768;2024-01-27T08:58:48;73.93;;;34.00;;
77888;SDS011;67082;41.704;44.768;2024-01-27T09:01:17;62.88;;;31.35;;
77888;SDS011;67082;41.704;44.768;2024-01-27T09:03:46;87.70;;;39.15;;
77888;SDS011;67082;41.704;44.768;2024-01-27T09:06:14;80.55;;;36.25;;
77888;SDS011;67082;41.704;44.768;2024-01-27T09:08:44;69.07;;;35.25;;
77888;SDS011;67082;41.704;44.768;2024-01-27T09:11:13;72.25;;;34.95;;
77888;SDS011;67082;41.704;44.768;2024-01-27T09:13:41;76.65;;;35.92;;
77888;SDS011;67082;41.704;44.768;2024-01-27T09:16:09;79.00;;;37.05;;
77888;SDS011;67082;41.704;44.768;2024-01-27T09:18:40;73.93;;;36.22;;
77888;SDS011;67082;41.704;44.768;2024-01-27T09:21:08;81.68;;;38.97;;
77888;SDS011;67082;41.704;44.768;2024-01-27T09:23:37;77.78;;;39.00;;
77888;SDS011;67082;41.704;44.768;2024-01-27T09:26:06;75.45;;;36.50;;
77888;SDS011;67082;41.704;44.768;2024-01-27T09:28:34;64.85;;;32.58;;
77888;SDS011;67082;41.704;44.768;2024-01-27T09:31:02;51.00;;;26.45;;
77888;SDS011;67082;41.704;44.768;2024-01-27T09:33:30;58.35;;;27.60;;
77888;SDS011;67082;41.704;44.768;2024-01-27T09:35:59;34.83;;;18.90;;
77888;SDS011;67082;41.704;44.768;2024-01-27T09:38:27;39.38;;;20.13;;
77888;SDS011;67082;41.704;44.768;2024-01-27T09:40:56;36.47;;;17.70;;
77888;SDS011;67082;41.704;44.768;2024-01-27T09:43:24;33.78;;;17.45;;
77888;SDS011;67082;41.704;44.768;2024-01-27T09:45:53;29.63;;;16.98;;
77888;SDS011;67082;41.704;44.768;2024-01-27T09:48:26;26.17;;;14.80;;
77888;SDS011;67082;41.704;44.768;2024-01-27T09:50:58;24.38;;;13.50;;
77888;SDS011;67082;41.704;44.768;2024-01-27T09:53:26;25.67;;;14.60;;
77888;SDS011;67082;41.704;44.768;2024-01-27T09:55:56;26.25;;;14.77;;
77888;SDS011;67082;41.704;44.768;2024-01-27T09:58:26;24.45;;;13.73;;
77888;SDS011;67082;41.704;44.768;2024-01-27T10:00:57;25.67;;;14.25;;
77888;SDS011;67082;41.704;44.768;2024-01-27T10:03:27;24.48;;;14.00;;
77888;SDS011;67082;41.704;44.768;2024-01-27T10:05:56;24.08;;;13.35;;
77888;SDS011;67082;41.704;44.768;2024-01-27T10:08:25;25.35;;;13.50;;
77888;SDS011;67082;41.704;44.768;2024-01-27T10:10:54;24.00;;;13.65;;
77888;SDS011;67082;41.704;44.768;2024-01-27T10:13:26;24.40;;;13.57;;
77888;SDS011;67082;41.704;44.768;2024-01-27T10:16:05;22.45;;;12.70;;
77888;SDS011;67082;41.704;44.768;2024-01-27T10:18:34;22.00;;;12.30;;
77888;SDS011;67082;41.704;44.768;2024-01-27T10:21:15;25.08;;;13.38;;
77888;SDS011;67082;41.704;44.768;2024-01-27T10:23:46;24.58;;;14.00;;
77888;SDS011;67082;41.704;44.768;2024-01-27T10:26:15;25.15;;;13.60;;
77888;SDS011;67082;41.704;44.768;2024-01-27T10:28:43;27.33;;;14.75;;
77888;SDS011;67082;41.704;44.768;2024-01-27T10:31:19;25.30;;;15.15;;
77888;SDS011;67082;41.704;44.768;2024-01-27T10:33:51;25.75;;;15.00;;
77888;SDS011;67082;41.704;44.768;2024-01-27T10:36:22;29.65;;;15.15;;
77888;SDS011;67082;41.704;44.768;2024-01-27T10:38:50;30.08;;;15.40;;
77888;SDS011;67082;41.704;44.768;2024-01-27T10:41:23;24.85;;;14.38;;
77888;SDS011;67082;41.704;44.768;2024-01-27T10:43:53;30.42;;;16.58;;
77888;SDS011;67082;41.704;44.768;2024-01-27T10:46:24;30.08;;;16.23;;
77888;SDS011;67082;41.704;44.768;2024-01-27T10:48:55;34.13;;;16.55;;
77888;SDS011;67082;41.704;44.768;2024-01-27T10:51:30;28.02;;;15.98;;
77888;SDS011;67082;41.704;44.768;2024-01-27T10:54:03;24.52;;;14.55;;
77888;SDS011;67082;41.704;44.768;2024-01-27T10:56:32;23.73;;;13.93;;
77888;SDS011;67082;41.704;44.768;2024-01-27T10:59:06;25.98;;;14.93;;
77888;SDS011;67082;41.704;44.768;2024-01-27T11:01:37;27.35;;;14.80;;
77888;SDS011;67082;41.704;44.768;2024-01-27T11:04:07;25.40;;;14.15;;
77888;SDS011;67082;41.704;44.768;2024-01-27T11:06:39;23.45;;;14.13;;
77888;SDS011;67082;41.704;44.768;2024-01-27T11:09:07;26.75;;;14.60;;
77888;SDS011;67082;41.704;44.768;2024-01-27T11:11:36;26.00;;;14.45;;
77888;SDS011;67082;41.704;44.768;2024-01-27T11:14:06;29.45;;;16.73;;
77888;SDS011;67082;41.704;44.768;2024-01-27T11:16:35;28.55;;;16.67;;
77888;SDS011;67082;41.704;44.768;2024-01-27T11:19:06;29.88;;;16.65;;
77888;SDS011;67082;41.704;44.768;2024-01-27T11:21:36;30.25;;;17.20;;
77888;SDS011;67082;41.704;44.768;2024-01-27T11:26:42;30.35;;;17.55;;
77888;SDS011;67082;41.704;44.768;2024-01-27T11:29:10;32.33;;;17.30;;
77888;SDS011;67082;41.704;44.768;2024-01-27T11:31:48;29.15;;;17.20;;
77888;SDS011;67082;41.704;44.768;2024-01-27T11:34:17;28.35;;;16.40;;
77888;SDS011;67082;41.704;44.768;2024-01-27T11:36:48;30.00;;;17.42;;
77888;SDS011;67082;41.704;44.768;2024-01-27T11:39:26;29.42;;;17.17;;
77888;SDS011;67082;41.704;44.768;2024-01-27T11:42:11;35.22;;;19.55;;
77888;SDS011;67082;41.704;44.768;2024-01-27T11:44:41;36.80;;;19.55;;
77888;SDS011;67082;41.704;44.768;2024-01-27T11:47:17;33.92;;;19.08;;
77888;SDS011;67082;41.704;44.768;2024-01-27T11:49:53;38.47;;;18.77;;
77888;SDS011;67082;41.704;44.768;2024-01-27T11:52:25;29.73;;;17.25;;
77888;SDS011;67082;41.704;44.768;2024-01-27T11:54:55;27.35;;;16.30;;
77888;SDS011;67082;41.704;44.768;2024-01-27T11:57:24;31.05;;;16.80;;
77888;SDS011;67082;41.704;44.768;2024-01-27T11:59:53;29.77;;;16.58;;
77888;SDS011;67082;41.704;44.768;2024-01-27T12:02:22;33.63;;;18.15;;
77888;SDS011;67082;41.704;44.768;2024-01-27T12:04:50;34.08;;;18.42;;
77888;SDS011;67082;41.704;44.768;2024-01-27T12:07:19;33.22;;;19.30;;
77888;SDS011;67082;41.704;44.768;2024-01-27T12:09:49;36.45;;;21.88;;
77888;SDS011;67082;41.704;44.768;2024-01-27T12:12:18;34.42;;;19.42;;
77888;SDS011;67082;41.704;44.768;2024-01-27T12:14:48;31.40;;;18.67;;
77888;SDS011;67082;41.704;44.768;2024-01-27T12:17:18;35.15;;;17.85;;
77888;SDS011;67082;41.704;44.768;2024-01-27T12:19:48;29.35;;;16.95;;
77888;SDS011;67082;41.704;44.768;2024-01-27T12:22:22;30.67;;;16.27;;
77888;SDS011;67082;41.704;44.768;2024-01-27T12:24:56;34.35;;;17.70;;
77888;SDS011;67082;41.704;44.768;2024-01-27T12:27:44;30.17;;;17.13;;
77888;SDS011;67082;41.704;44.768;2024-01-27T12:30:12;32.35;;;16.42;;
77888;SDS011;67082;41.704;44.768;2024-01-27T12:32:41;31.80;;;17.67;;
77888;SDS011;67082;41.704;44.768;2024-01-27T12:35:09;48.42;;;19.27;;
77888;SDS011;67082;41.704;44.768;2024-01-27T12:37:38;40.80;;;21.80;;
77888;SDS011;67082;41.704;44.768;2024-01-27T12:40:21;38.00;;;19.85;;
77888;SDS011;67082;41.704;44.768;2024-01-27T12:42:51;37.38;;;19.80;;
77888;SDS011;67082;41.704;44.768;2024-01-27T12:45:19;35.60;;;19.67;;
77888;SDS011;67082;41.704;44.768;2024-01-27T12:47:48;37.45;;;19.65;;
77888;SDS011;67082;41.704;44.768;2024-01-27T12:50:18;39.58;;;21.55;;
77888;SDS011;67082;41.704;44.768;2024-01-27T12:52:46;45.08;;;23.00;;
77888;SDS011;67082;41.704;44.768;2024-01-27T12:55:15;35.63;;;20.60;;
77888;SDS011;67082;41.704;44.768;2024-01-27T12:57:45;37.08;;;19.58;;
77888;SDS011;67082;41.704;44.768;2024-01-27T13:00:14;31.92;;;18.38;;
77888;SDS011;67082;41.704;44.768;2024-01-27T13:02:43;36.78;;;21.23;;
77888;SDS011;67082;41.704;44.768;2024-01-27T13:05:11;38.53;;;21.05;;
77888;SDS011;67082;41.704;44.768;2024-01-27T13:07:39;35.10;;;18.77;;
77888;SDS011;67082;41.704;44.768;2024-01-27T13:10:07;38.65;;;18.67;;
77888;SDS011;67082;41.704;44.768;2024-01-27T13:12:36;38.03;;;18.30;;
77888;SDS011;67082;41.704;44.768;2024-01-27T13:15:04;28.80;;;16.25;;
77888;SDS011;67082;41.704;44.768;2024-01-27T13:17:34;26.65;;;14.90;;
77888;SDS011;67082;41.704;44.768;2024-01-27T13:20:02;24.92;;;15.02;;
77888;SDS011;67082;41.704;44.768;2024-01-27T13:22:31;29.58;;;16.02;;
77888;SDS011;67082;41.704;44.768;2024-01-27T13:24:59;29.08;;;16.75;;
77888;SDS011;67082;41.704;44.768;2024-01-27T13:27:33;31.38;;;17.13;;
77888;SDS011;67082;41.704;44.768;2024-01-27T13:30:02;31.02;;;17.17;;
77888;SDS011;67082;41.704;44.768;2024-01-27T13:32:31;33.72;;;17.83;;
77888;SDS011;67082;41.704;44.768;2024-01-27T13:35:00;36.38;;;19.52;;
77888;SDS011;67082;41.704;44.768;2024-01-27T13:37:29;38.35;;;18.73;;
77888;SDS011;67082;41.704;44.768;2024-01-27T13:40:01;40.78;;;20.88;;
77888;SDS011;67082;41.704;44.768;2024-01-27T13:42:31;53.00;;;26.42;;
77888;SDS011;67082;41.704;44.768;2024-01-27T13:44:59;40.28;;;21.75;;
77888;SDS011;67082;41.704;44.768;2024-01-27T13:47:31;44.17;;;22.42;;
77888;SDS011;67082;41.704;44.768;2024-01-27T13:49:59;42.97;;;23.05;;
77888;SDS011;67082;41.704;44.768;2024-01-27T13:52:30;48.35;;;24.73;;
77888;SDS011;67082;41.704;44.768;2024-01-27T13:54:58;50.08;;;26.02;;
77888;SDS011;67082;41.704;44.768;2024-01-27T13:57:32;52.15;;;28.65;;
77888;SDS011;67082;41.704;44.768;2024-01-27T14:00:00;53.83;;;28.45;;
77888;SDS011;67082;41.704;44.768;2024-01-27T14:02:32;48.85;;;28.38;;
77888;SDS011;67082;41.704;44.768;2024-01-27T14:05:04;52.83;;;27.58;;
77888;SDS011;67082;41.704;44.768;2024-01-27T14:07:33;50.95;;;27.92;;
77888;SDS011;67082;41.704;44.768;2024-01-27T14:10:01;55.97;;;28.10;;
77888;SDS011;67082;41.704;44.768;2024-01-27T14:12:31;53.42;;;29.05;;
77888;SDS011;67082;41.704;44.768;2024-01-27T14:15:03;54.40;;;29.05;;
77888;SDS011;67082;41.704;44.768;2024-01-27T14:17:36;54.28;;;29.52;;
77888;SDS011;67082;41.704;44.768;2024-01-27T14:20:04;53.53;;;29.15;;
77888;SDS011;67082;41.704;44.768;2024-01-27T14:22:34;52.53;;;28.77;;
77888;SDS011;67082;41.704;44.768;2024-01-27T14:25:02;57.45;;;29.38;;
77888;SDS011;67082;41.704;44.768;2024-01-27T14:27:30;52.47;;;28.98;;
77888;SDS011;67082;41.704;44.768;2024-01-27T14:29:58;60.13;;;31.80;;
77888;SDS011;67082;41.704;44.768;2024-01-27T14:32:31;55.58;;;28.55;;
77888;SDS011;67082;41.704;44.768;2024-01-27T14:34:59;54.10;;;29.27;;
77888;SDS011;67082;41.704;44.768;2024-01-27T14:37:29;56.97;;;29.25;;
77888;SDS011;67082;41.704;44.768;2024-01-27T14:39:58;52.55;;;29.08;;
77888;SDS011;67082;41.704;44.768;2024-01-27T14:42:29;47.50;;;26.17;;
77888;SDS011;67082;41.704;44.768;2024-01-27T14:45:01;54.53;;;29.05;;
77888;SDS011;67082;41.704;44.768;2024-01-27T14:47:32;55.28;;;27.80;;
77888;SDS011;67082;41.704;44.768;2024-01-27T14:50:00;50.92;;;27.10;;
77888;SDS011;67082;41.704;44.768;2024-01-27T14:52:30;50.70;;;27.80;;
77888;SDS011;67082;41.704;44.768;2024-01-27T14:54:59;50.83;;;27.17;;
77888;SDS011;67082;41.704;44.768;2024-01-27T14:57:30;46.92;;;24.15;;
77888;SDS011;67082;41.704;44.768;2024-01-27T14:59:58;44.50;;;24.13;;
77888;SDS011;67082;41.704;44.768;2024-01-27T15:02:31;41.63;;;23.27;;
77888;SDS011;67082;41.704;44.768;2024-01-27T15:04:59;46.83;;;24.20;;
77888;SDS011;67082;41.704;44.768;2024-01-27T15:07:28;41.83;;;23.48;;
77888;SDS011;67082;41.704;44.768;2024-01-27T15:09:57;42.90;;;22.15;;
77888;SDS011;67082;41.704;44.768;2024-01-27T15:12:25;35.47;;;21.30;;
77888;SDS011;67082;41.704;44.768;2024-01-27T15:14:54;30.50;;;19.13;;
77888;SDS011;67082;41.704;44.768;2024-01-27T15:17:22;32.67;;;18.90;;
77888;SDS011;67082;41.704;44.768;2024-01-27T15:19:52;30.63;;;18.10;;
77888;SDS011;67082;41.704;44.768;2024-01-27T15:22:21;30.85;;;19.27;;
77888;SDS011;67082;41.704;44.768;2024-01-27T15:24:49;35.10;;;19.92;;
77888;SDS011;67082;41.704;44.768;2024-01-27T15:27:17;40.55;;;22.17;;
77888;SDS011;67082;41.704;44.768;2024-01-27T15:29:45;35.38;;;20.90;;
77888;SDS011;67082;41.704;44.768;2024-01-27T15:32:13;35.78;;;20.20;;
77888;SDS011;67082;41.704;44.768;2024-01-27T15:34:44;35.25;;;20.55;;
77888;SDS011;67082;41.704;44.768;2024-01-27T15:37:13;38.08;;;20.95;;
77888;SDS011;67082;41.704;44.768;2024-01-27T15:39:41;37.40;;;20.75;;
77888;SDS011;67082;41.704;44.768;2024-01-27T15:42:11;40.45;;;24.35;;
77888;SDS011;67082;41.704;44.768;2024-01-27T15:44:39;40.63;;;23.75;;
77888;SDS011;67082;41.704;44.768;2024-01-27T15:47:07;38.50;;;23.08;;
77888;SDS011;67082;41.704;44.768;2024-01-27T15:49:36;41.40;;;22.98;;
77888;SDS011;67082;41.704;44.768;2024-01-27T15:52:04;64.57;;;34.22;;
77888;SDS011;67082;41.704;44.768;2024-01-27T15:54:32;62.38;;;34.42;;
77888;SDS011;67082;41.704;44.768;2024-01-27T15:57:01;49.20;;;26.80;;
77888;SDS011;67082;41.704;44.768;2024-01-27T15:59:31;46.25;;;26.98;;
77888;SDS011;67082;41.704;44.768;2024-01-27T16:01:59;52.38;;;27.90;;
77888;SDS011;67082;41.704;44.768;2024-01-27T16:04:27;64.90;;;35.35;;
77888;SDS011;67082;41.704;44.768;2024-01-27T16:06:56;45.00;;;24.15;;
77888;SDS011;67082;41.704;44.768;2024-01-27T16:09:24;46.42;;;26.13;;
77888;SDS011;67082;41.704;44.768;2024-01-27T16:11:53;40.25;;;23.50;;
77888;SDS011;67082;41.704;44.768;2024-01-27T16:14:22;42.28;;;24.20;;
77888;SDS011;67082;41.704;44.768;2024-01-27T16:16:50;43.85;;;23.73;;
77888;SDS011;67082;41.704;44.768;2024-01-27T16:19:18;39.70;;;23.85;;
77888;SDS011;67082;41.704;44.768;2024-01-27T16:21:48;38.42;;;22.98;;
77888;SDS011;67082;41.704;44.768;2024-01-27T16:24:16;44.35;;;23.90;;
77888;SDS011;67082;41.704;44.768;2024-01-27T16:26:44;41.70;;;24.23;;
77888;SDS011;67082;41.704;44.768;2024-01-27T16:29:12;39.65;;;22.83;;
77888;SDS011;67082;41.704;44.768;2024-01-27T16:31:40;44.35;;;25.77;;
77888;SDS011;67082;41.704;44.768;2024-01-27T16:34:09;53.35;;;30.70;;
77888;SDS011;67082;41.704;44.768;2024-01-27T16:36:38;43.25;;;23.20;;
77888;SDS011;67082;41.704;44.768;2024-01-27T16:39:06;37.22;;;21.25;;
77888;SDS011;67082;41.704;44.768;2024-01-27T16:41:35;35.42;;;21.35;;
77888;SDS011;67082;41.704;44.768;2024-01-27T16:44:03;37.55;;;21.77;;
77888;SDS011;67082;41.704;44.768;2024-01-27T16:49:13;36.25;;;20.52;;
77888;SDS011;67082;41.704;44.768;2024-01-27T16:51:42;36.47;;;20.35;;
77888;SDS011;67082;41.704;44.768;2024-01-27T16:54:10;35.97;;;20.33;;
77888;SDS011;67082;41.704;44.768;2024-01-27T16:56:40;35.97;;;20.30;;
77888;SDS011;67082;41.704;44.768;2024-01-27T16:59:08;33.15;;;19.73;;
77888;SDS011;67082;41.704;44.768;2024-01-27T17:01:36;38.83;;;22.08;;
77888;SDS011;67082;41.704;44.768;2024-01-27T17:04:04;37.17;;;22.33;;
77888;SDS011;67082;41.704;44.768;2024-01-27T17:06:35;37.13;;;21.83;;
77888;SDS011;67082;41.704;44.768;2024-01-27T17:09:03;38.30;;;21.98;;
77888;SDS011;67082;41.704;44.768;2024-01-27T17:11:31;35.80;;;22.10;;
77888;SDS011;67082;41.704;44.768;2024-01-27T17:13:59;32.88;;;19.90;;
77888;SDS011;67082;41.704;44.768;2024-01-27T17:16:28;31.65;;;18.30;;
77888;SDS011;67082;41.704;44.768;2024-01-27T17:18:56;29.35;;;17.73;;
77888;SDS011;67082;41.704;44.768;2024-01-27T17:21:24;31.90;;;18.30;;
77888;SDS011;67082;41.704;44.768;2024-01-27T17:23:52;30.45;;;17.42;;
77888;SDS011;67082;41.704;44.768;2024-01-27T17:26:21;30.85;;;17.42;;
77888;SDS011;67082;41.704;44.768;2024-01-27T17:28:49;35.03;;;20.25;;
77888;SDS011;67082;41.704;44.768;2024-01-27T17:31:17;39.45;;;22.88;;
77888;SDS011;67082;41.704;44.768;2024-01-27T17:33:45;32.70;;;19.85;;
77888;SDS011;67082;41.704;44.768;2024-01-27T17:36:15;36.88;;;20.40;;
77888;SDS011;67082;41.704;44.768;2024-01-27T17:38:43;35.80;;;20.92;;
77888;SDS011;67082;41.704;44.768;2024-01-27T17:41:12;35.15;;;19.95;;
77888;SDS011;67082;41.704;44.768;2024-01-27T17:43:41;33.25;;;18.50;;
77888;SDS011;67082;41.704;44.768;2024-01-27T17:46:09;23.83;;;14.38;;
77888;SDS011;67082;41.704;44.768;2024-01-27T17:48:39;21.50;;;13.48;;
77888;SDS011;67082;41.704;44.768;2024-01-27T17:51:08;21.10;;;12.50;;
77888;SDS011;67082;41.704;44.768;2024-01-27T17:53:39;14.40;;;8.77;;
77888;SDS011;67082;41.704;44.768;2024-01-27T17:56:08;13.02;;;8.40;;
77888;SDS011;67082;41.704;44.768;2024-01-27T17:58:36;13.48;;;7.50;;
77888;SDS011;67082;41.704;44.768;2024-01-27T18:01:04;10.52;;;5.68;;
77888;SDS011;67082;41.704;44.768;2024-01-27T18:03:33;11.20;;;7.03;;
77888;SDS011;67082;41.704;44.768;2024-01-27T18:06:01;8.00;;;4.82;;
77888;SDS011;67082;41.704;44.768;2024-01-27T18:08:29;7.18;;;4.40;;
77888;SDS011;67082;41.704;44.768;2024-01-27T18:10:58;7.28;;;3.75;;
77888;SDS011;67082;41.704;44.768;2024-01-27T18:13:26;4.97;;;2.90;;
77888;SDS011;67082;41.704;44.768;2024-01-27T18:15:55;5.93;;;3.60;;
77888;SDS011;67082;41.704;44.768;2024-01-27T18:18:23;4.47;;;2.63;;
77888;SDS011;67082;41.704;44.768;2024-01-27T18:20:52;6.05;;;2.85;;
77888;SDS011;67082;41.704;44.768;2024-01-27T18:23:20;4.13;;;1.90;;
77888;SDS011;67082;41.704;44.768;2024-01-27T18:25:48;5.03;;;2.50;;
77888;SDS011;67082;41.704;44.768;2024-01-27T18:28:16;4.57;;;2.75;;
77888;SDS011;67082;41.704;44.768;2024-01-27T18:30:45;10.43;;;2.40;;
77888;SDS011;67082;41.704;44.768;2024-01-27T18:33:13;4.95;;;3.00;;
77888;SDS011;67082;41.704;44.768;2024-01-27T18:35:43;4.13;;;2.00;;
77888;SDS011;67082;41.704;44.768;2024-01-27T18:38:11;2.95;;;1.88;;
77888;SDS011;67082;41.704;44.768;2024-01-27T18:40:39;3.78;;;2.25;;
77888;SDS011;67082;41.704;44.768;2024-01-27T18:43:08;4.40;;;2.03;;
77888;SDS011;67082;41.704;44.768;2024-01-27T18:45:36;5.85;;;2.70;;
77888;SDS011;67082;41.704;44.768;2024-01-27T18:48:07;4.90;;;2.83;;
77888;SDS011;67082;41.704;44.768;2024-01-27T18:50:36;4.43;;;2.72;;
77888;SDS011;67082;41.704;44.768;2024-01-27T18:53:04;3.95;;;1.92;;
77888;SDS011;67082;41.704;44.768;2024-01-27T18:55:33;4.28;;;2.17;;
77888;SDS011;67082;41.704;44.768;2024-01-27T18:58:05;3.70;;;1.73;;
77888;SDS011;67082;41.704;44.768;2024-01-27T19:00:34;3.65;;;1.90;;
77888;SDS011;67082;41.704;44.768;2024-01-27T19:03:03;2.88;;;1.90;;
77888;SDS011;67082;41.704;44.768;2024-01-27T19:05:37;4.45;;;1.88;;
77888;SDS011;67082;41.704;44.768;2024-01-27T19:08:05;2.78;;;1.48;;
77888;SDS011;67082;41.704;44.768;2024-01-27T19:10:34;3.65;;;2.00;;
77888;SDS011;67082;41.704;44.768;2024-01-27T19:13:02;4.03;;;1.58;;
77888;SDS011;67082;41.704;44.768;2024-01-27T19:15:31;3.63;;;2.15;;
77888;SDS011;67082;41.704;44.768;2024-01-27T19:18:01;3.15;;;1.38;;
77888;SDS011;67082;41.704;44.768;2024-01-27T19:20:30;2.40;;;1.38;;
77888;SDS011;67082;41.704;44.768;2024-01-27T19:22:59;3.70;;;2.03;;
77888;SDS011;67082;41.704;44.768;2024-01-27T19:25:28;4.35;;;2.10;;
77888;SDS011;67082;41.704;44.768;2024-01-27T19:27:57;2.95;;;1.60;;
77888;SDS011;67082;41.704;44.768;2024-01-27T19:30:29;4.53;;;2.50;;
77888;SDS011;67082;41.704;44.768;2024-01-27T19:32:57;4.78;;;1.20;;
77888;SDS011;67082;41.704;44.768;2024-01-27T19:35:26;1.75;;;0.95;;
77888;SDS011;67082;41.704;44.768;2024-01-27T19:37:54;6.68;;;1.67;;
77888;SDS011;67082;41.704;44.768;2024-01-27T19:40:23;7.38;;;1.23;;
77888;SDS011;67082;41.704;44.768;2024-01-27T19:42:50;6.10;;;2.95;;
77888;SDS011;67082;41.704;44.768;2024-01-27T19:45:19;3.42;;;1.60;;
77888;SDS011;67082;41.704;44.768;2024-01-27T19:47:50;3.17;;;1.75;;
77888;SDS011;67082;41.704;44.768;2024-01-27T19:50:18;4.25;;;1.95;;
77888;SDS011;67082;41.704;44.768;2024-01-27T19:52:47;6.07;;;3.03;;
77888;SDS011;67082;41.704;44.768;2024-01-27T19:55:15;3.20;;;1.15;;
77888;SDS011;67082;41.704;44.768;2024-01-27T19:57:45;3.95;;;2.20;;
77888;SDS011;67082;41.704;44.768;2024-01-27T20:00:13;6.50;;;3.33;;
77888;SDS011;67082;41.704;44.768;2024-01-27T20:02:45;3.03;;;1.40;;
77888;SDS011;67082;41.704;44.768;2024-01-27T20:05:13;3.10;;;1.15;;
77888;SDS011;67082;41.704;44.768;2024-01-27T20:07:42;2.25;;;1.20;;
77888;SDS011;67082;41.704;44.768;2024-01-27T20:10:10;1.63;;;0.82;;
77888;SDS011;67082;41.704;44.768;2024-01-27T20:12:38;1.42;;;0.80;;
77888;SDS011;67082;41.704;44.768;2024-01-27T20:15:09;2.58;;;1.20;;
77888;SDS011;67082;41.704;44.768;2024-01-27T20:17:38;5.65;;;3.05;;
77888;SDS011;67082;41.704;44.768;2024-01-27T20:20:07;3.92;;;2.13;;
77888;SDS011;67082;41.704;44.768;2024-01-27T20:22:36;1.50;;;0.70;;
77888;SDS011;67082;41.704;44.768;2024-01-27T20:25:04;3.17;;;1.00;;
77888;SDS011;67082;41.704;44.768;2024-01-27T20:27:33;22.67;;;11.60;;
77888;SDS011;67082;41.704;44.768;2024-01-27T20:30:02;3.47;;;1.33;;
77888;SDS011;67082;41.704;44.768;2024-01-27T20:32:31;4.82;;;2.28;;
77888;SDS011;67082;41.704;44.768;2024-01-27T20:34:59;2.22;;;0.93;;
77888;SDS011;67082;41.704;44.768;2024-01-27T20:37:27;3.80;;;1.50;;
77888;SDS011;67082;41.704;44.768;2024-01-27T20:39:56;4.50;;;1.83;;
77888;SDS011;67082;41.704;44.768;2024-01-27T20:42:24;1.70;;;0.80;;
77888;SDS011;67082;41.704;44.768;2024-01-27T20:44:53;15.80;;;8.68;;
77888;SDS011;67082;41.704;44.768;2024-01-27T20:47:23;3.92;;;1.08;;
77888;SDS011;67082;41.704;44.768;2024-01-27T20:49:52;5.10;;;2.13;;
77888;SDS011;67082;41.704;44.768;2024-01-27T20:52:21;2.58;;;0.88;;
77888;SDS011;67082;41.704;44.768;2024-01-27T20:54:49;8.35;;;3.72;;
77888;SDS011;67082;41.704;44.768;2024-01-27T20:57:17;3.30;;;1.52;;
77888;SDS011;67082;41.704;44.768;2024-01-27T20:59:50;2.90;;;1.80;;
77888;SDS011;67082;41.704;44.768;2024-01-27T21:02:18;2.92;;;1.00;;
77888;SDS011;67082;41.704;44.768;2024-01-27T21:04:47;2.65;;;1.13;;
77888;SDS011;67082;41.704;44.768;2024-01-27T21:07:15;1.85;;;0.70;;
77888;SDS011;67082;41.704;44.768;2024-01-27T21:09:45;1.35;;;0.60;;
77888;SDS011;67082;41.704;44.768;2024-01-27T21:12:14;2.22;;;0.90;;
77888;SDS011;67082;41.704;44.768;2024-01-27T21:14:43;0.68;;;0.50;;
77888;SDS011;67082;41.704;44.768;2024-01-27T21:17:11;4.55;;;1.60;;
77888;SDS011;67082;41.704;44.768;2024-01-27T21:19:39;1.85;;;0.80;;
77888;SDS011;67082;41.704;44.768;2024-01-27T21:22:10;5.15;;;0.80;;
77888;SDS011;67082;41.704;44.768;2024-01-27T21:24:38;1.55;;;0.70;;
77888;SDS011;67082;41.704;44.768;2024-01-27T21:27:06;1.33;;;0.70;;
77888;SDS011;67082;41.704;44.768;2024-01-27T21:29:34;1.08;;;0.50;;
77888;SDS011;67082;41.704;44.768;2024-01-27T21:32:03;1.85;;;0.80;;
77888;SDS011;67082;41.704;44.768;2024-01-27T21:34:33;1.02;;;0.60;;
77888;SDS011;67082;41.704;44.768;2024-01-27T21:37:01;1.23;;;0.70;;
77888;SDS011;67082;41.704;44.768;2024-01-27T21:39:32;0.90;;;0.50;;
77888;SDS011;67082;41.704;44.768;2024-01-27T21:42:00;0.93;;;0.45;;
77888;SDS011;67082;41.704;44.768;2024-01-27T21:44:29;2.03;;;0.57;;
77888;SDS011;67082;41.704;44.768;2024-01-27T21:46:57;1.48;;;0.70;;
77888;SDS011;67082;41.704;44.768;2024-01-27T21:49:26;0.70;;;0.40;;
77888;SDS011;67082;41.704;44.768;2024-01-27T21:51:55;2.05;;;0.80;;
77888;SDS011;67082;41.704;44.768;2024-01-27T21:54:24;1.65;;;0.65;;
77888;SDS011;67082;41.704;44.768;2024-01-27T21:56:52;1.20;;;0.60;;
77888;SDS011;67082;41.704;44.768;2024-01-27T21:59:21;0.98;;;0.50;;
77888;SDS011;67082;41.704;44.768;2024-01-27T22:01:49;1.27;;;0.47;;
77888;SDS011;67082;41.704;44.768;2024-01-27T22:04:18;2.17;;;0.55;;
77888;SDS011;67082;41.704;44.768;2024-01-27T22:06:46;0.90;;;0.50;;
77888;SDS011;67082;41.704;44.768;2024-01-27T22:09:15;1.38;;;0.52;;
77888;SDS011;67082;41.704;44.768;2024-01-27T22:11:43;2.30;;;0.47;;
77888;SDS011;67082;41.704;44.768;2024-01-27T22:14:13;2.25;;;0.50;;
77888;SDS011;67082;41.704;44.768;2024-01-27T22:16:42;2.05;;;0.57;;
77888;SDS011;67082;41.704;44.768;2024-01-27T22:19:11;1.33;;;0.52;;
77888;SDS011;67082;41.704;44.768;2024-01-27T22:21:39;0.40;;;0.30;;
77888;SDS011;67082;41.704;44.768;2024-01-27T22:24:07;0.95;;;0.40;;
77888;SDS011;67082;41.704;44.768;2024-01-27T22:26:38;0.30;;;0.30;;
77888;SDS011;67082;41.704;44.768;2024-01-27T22:29:06;1.00;;;0.50;;
77888;SDS011;67082;41.704;44.768;2024-01-27T22:31:34;1.88;;;0.50;;
77888;SDS011;67082;41.704;44.768;2024-01-27T22:34:03;1.73;;;0.45;;
77888;SDS011;67082;41.704;44.768;2024-01-27T22:36:31;0.65;;;0.40;;
77888;SDS011;67082;41.704;44.768;2024-01-27T22:39:00;0.60;;;0.38;;
77888;SDS011;67082;41.704;44.768;2024-01-27T22:41:28;0.55;;;0.40;;
77888;SDS011;67082;41.704;44.768;2024-01-27T22:43:56;0.93;;;0.40;;
77888;SDS011;67082;41.704;44.768;2024-01-27T22:46:27;0.65;;;0.32;;
77888;SDS011;67082;41.704;44.768;2024-01-27T22:48:56;1.48;;;0.68;;
77888;SDS011;67082;41.704;44.768;2024-01-27T22:51:24;0.68;;;0.40;;
77888;SDS011;67082;41.704;44.768;2024-01-27T22:53:53;1.95;;;0.40;;
77888;SDS011;67082;41.704;44.768;2024-01-27T22:56:21;0.75;;;0.47;;
77888;SDS011;67082;41.704;44.768;2024-01-27T22:58:49;0.40;;;0.32;;
77888;SDS011;67082;41.704;44.768;2024-01-27T23:01:17;0.55;;;0.40;;
77888;SDS011;67082;41.704;44.768;2024-01-27T23:03:46;0.55;;;0.40;;
77888;SDS011;67082;41.704;44.768;2024-01-27T23:06:14;1.40;;;0.70;;
77888;SDS011;67082;41.704;44.768;2024-01-27T23:08:43;1.10;;;0.50;;
77888;SDS011;67082;41.704;44.768;2024-01-27T23:11:11;0.93;;;0.50;;
77888;SDS011;67082;41.704;44.768;2024-01-27T23:13:39;0.75;;;0.40;;
77888;SDS011;67082;41.704;44.768;2024-01-27T23:16:07;1.50;;;0.50;;
77888;SDS011;67082;41.704;44.768;2024-01-27T23:18:36;0.90;;;0.40;;
77888;SDS011;67082;41.704;44.768;2024-01-27T23:21:05;0.52;;;0.40;;
77888;SDS011;67082;41.704;44.768;2024-01-27T23:23:33;0.47;;;0.38;;